Time;durP1;ratioP1;P1;durP2;ratioP2;P2;SDS_P1;SDS_P2;PMS_P1;PMS_P2;Temp;Humidity;BMP_temperature;BMP_pressure;BME280_temperature;BME280_humidity;BME280_pressure;Samples;Min_cycle;Max_cycle;Signal;HPM_P1;HPM_P2
2024/01/21 00:01:29;;;;;;;24.55;13.77;;;5.80;63.80;;;;;;4935581;29;20107;-81
2024/01/21 00:03:55;;;;;;;22.08;14.27;;;5.80;63.40;;;;;;4920273;29;20038;-81
2024/01/21 00:06:21;;;;;;;19.10;13.10;;;5.80;63.30;;;;;;4937623;29;20043;-82
2024/01/21 00:08:47;;;;;;;19.98;13.50;;;5.80;63.30;;;;;;4937387;29;20035;-82
2024/01/21 00:11:13;;;;;;;23.95;15.52;;;5.80;63.60;;;;;;4937212;29;20035;-82
2024/01/21 00:13:38;;;;;;;20.73;14.18;;;5.80;63.80;;;;;;4937272;29;20400;-81
2024/01/21 00:16:04;;;;;;;23.60;15.38;;;5.70;64.40;;;;;;4936940;29;20030;-82
2024/01/21 00:18:30;;;;;;;28.05;17.77;;;5.70;65.00;;;;;;4919904;29;20040;-82
2024/01/21 00:20:55;;;;;;;23.83;14.93;;;5.60;64.50;;;;;;4947747;28;20535;-81
2024/01/21 00:23:21;;;;;;;23.95;15.48;;;5.50;64.30;;;;;;4955708;29;20094;-81
2024/01/21 00:25:47;;;;;;;23.90;15.00;;;5.40;64.50;;;;;;4953981;29;20035;-81
2024/01/21 00:28:12;;;;;;;23.40;15.25;;;5.40;65.30;;;;;;4939090;29;20118;-82
2024/01/21 00:30:38;;;;;;;24.80;15.57;;;5.40;65.20;;;;;;4955826;29;20496;-82
2024/01/21 00:33:04;;;;;;;22.10;15.43;;;5.40;65.20;;;;;;4956110;29;20027;-82
2024/01/21 00:35:30;;;;;;;24.13;15.50;;;5.40;65.10;;;;;;4956243;29;20078;-82
2024/01/21 00:37:55;;;;;;;21.20;14.75;;;5.40;65.20;;;;;;4956373;29;20034;-82
2024/01/21 00:40:23;;;;;;;23.52;15.82;;;5.30;65.10;;;;;;4955965;28;20038;-82
2024/01/21 00:42:49;;;;;;;24.33;14.93;;;5.20;65.30;;;;;;4955662;29;20031;-81
2024/01/21 00:45:14;;;;;;;24.02;14.15;;;5.20;65.60;;;;;;4938560;29;20031;-81
2024/01/21 00:47:40;;;;;;;21.73;14.10;;;5.20;65.90;;;;;;4938391;29;20036;-81
2024/01/21 00:50:06;;;;;;;20.08;11.90;;;5.10;66.20;;;;;;4938864;29;20039;-82
2024/01/21 00:52:32;;;;;;;19.48;11.32;;;5.10;66.10;;;;;;4955199;29;20115;-82
2024/01/21 00:54:57;;;;;;;18.88;12.52;;;5.00;66.40;;;;;;4955583;29;20461;-82
2024/01/21 00:57:23;;;;;;;30.60;18.30;;;4.80;66.60;;;;;;4955804;29;20042;-82
2024/01/21 00:59:49;;;;;;;23.27;15.32;;;4.70;67.40;;;;;;4955586;29;20369;-82
2024/01/21 01:02:14;;;;;;;21.65;15.55;;;4.60;67.90;;;;;;4955558;29;20054;-82
2024/01/21 01:04:40;;;;;;;27.77;16.38;;;4.60;67.80;;;;;;4955573;29;20023;-82
2024/01/21 01:07:06;;;;;;;23.10;14.20;;;4.60;68.00;;;;;;4937807;29;20050;-82
2024/01/21 01:09:32;;;;;;;21.38;14.38;;;4.60;68.30;;;;;;4943864;29;20078;-83
2024/01/21 01:11:57;;;;;;;22.98;13.95;;;4.60;68.30;;;;;;4936716;29;20107;-82
2024/01/21 01:14:23;;;;;;;24.75;15.10;;;4.50;68.60;;;;;;4954870;29;20039;-83
2024/01/21 01:16:49;;;;;;;25.70;15.77;;;4.50;69.10;;;;;;4952931;29;20102;-82
2024/01/21 01:19:14;;;;;;;22.58;15.07;;;4.50;69.70;;;;;;4938053;29;20050;-82
2024/01/21 01:21:40;;;;;;;20.10;13.90;;;4.60;69.50;;;;;;4951006;29;20420;-82
2024/01/21 01:24:06;;;;;;;23.10;13.68;;;4.50;69.10;;;;;;4954427;29;20118;-82
2024/01/21 01:26:32;;;;;;;21.83;13.80;;;4.50;68.90;;;;;;4954529;29;20437;-82
2024/01/21 01:28:58;;;;;;;21.75;14.07;;;4.50;68.80;;;;;;4954229;29;20035;-82
2024/01/21 01:31:24;;;;;;;21.65;13.95;;;4.40;68.30;;;;;;4948367;29;20119;-82
2024/01/21 01:33:50;;;;;;;18.27;12.32;;;4.40;68.50;;;;;;4955114;29;20106;-82
2024/01/21 01:36:15;;;;;;;21.98;13.20;;;4.30;68.70;;;;;;4955146;29;20042;-82
2024/01/21 01:38:41;;;;;;;21.00;13.88;;;4.30;68.80;;;;;;4937733;29;20456;-82
2024/01/21 01:41:07;;;;;;;20.98;13.60;;;4.30;69.00;;;;;;4954933;29;20035;-82
2024/01/21 01:43:32;;;;;;;20.83;14.05;;;4.30;69.10;;;;;;4955005;29;20110;-81
2024/01/21 01:46:01;;;;;;;21.73;14.57;;;4.40;69.30;;;;;;4954858;29;20113;-82
2024/01/21 01:48:28;;;;;;;20.85;13.73;;;4.40;69.30;;;;;;4954673;29;20055;-82
2024/01/21 01:50:56;;;;;;;21.73;13.85;;;4.40;69.30;;;;;;4955180;29;20027;-82
2024/01/21 01:53:23;;;;;;;22.40;13.70;;;4.40;69.20;;;;;;4954433;29;20086;-82
2024/01/21 01:55:48;;;;;;;22.20;13.20;;;4.40;69.60;;;;;;4937428;29;20488;-82
2024/01/21 01:58:16;;;;;;;20.08;12.90;;;4.30;69.40;;;;;;4937689;29;20027;-82
2024/01/21 02:00:42;;;;;;;23.13;13.88;;;4.30;70.00;;;;;;4954597;29;20039;-82
2024/01/21 02:03:12;;;;;;;20.15;13.57;;;4.30;69.80;;;;;;4937349;29;20036;-82
2024/01/21 02:05:38;;;;;;;21.33;13.07;;;4.30;70.00;;;;;;4937569;29;20043;-82
2024/01/21 02:08:04;;;;;;;19.00;13.15;;;4.40;70.10;;;;;;4954730;29;20048;-83
2024/01/21 02:10:30;;;;;;;23.63;13.43;;;4.40;70.10;;;;;;4937407;29;20034;-83
2024/01/21 02:12:56;;;;;;;22.77;15.05;;;4.40;70.40;;;;;;4954514;29;20114;-82
2024/01/21 02:15:22;;;;;;;18.67;12.32;;;4.40;70.30;;;;;;4937516;29;20028;-82
2024/01/21 02:17:48;;;;;;;19.45;12.88;;;4.40;70.30;;;;;;4937051;29;20035;-82
2024/01/21 02:20:15;;;;;;;19.55;13.18;;;4.40;70.50;;;;;;4954472;28;20039;-82
2024/01/21 02:22:41;;;;;;;19.83;12.70;;;4.40;70.40;;;;;;4954130;29;20035;-82
2024/01/21 02:25:08;;;;;;;20.48;13.15;;;4.40;70.70;;;;;;4954327;29;20035;-82
2024/01/21 02:27:34;;;;;;;21.45;12.85;;;4.40;70.50;;;;;;4953919;29;20054;-82
2024/01/21 02:30:00;;;;;;;21.05;13.35;;;4.40;70.70;;;;;;4954195;29;20134;-82
2024/01/21 02:32:26;;;;;;;17.63;11.98;;;4.40;70.80;;;;;;4968914;28;20081;-82
2024/01/21 02:34:53;;;;;;;17.70;12.57;;;4.40;70.80;;;;;;4939139;29;20031;-83
2024/01/21 02:37:18;;;;;;;18.98;11.93;;;4.40;70.70;;;;;;4954675;29;20024;-82
2024/01/21 02:39:44;;;;;;;18.63;12.38;;;4.30;70.80;;;;;;4954728;29;20035;-83
2024/01/21 02:42:10;;;;;;;17.63;12.00;;;4.40;71.10;;;;;;4937065;29;20031;-82
2024/01/21 02:44:36;;;;;;;19.10;13.20;;;4.40;70.90;;;;;;4954009;29;20082;-82
2024/01/21 02:47:02;;;;;;;19.05;12.05;;;4.40;70.80;;;;;;4954340;29;20378;-83
2024/01/21 02:49:28;;;;;;;16.33;10.75;;;4.40;70.90;;;;;;4954225;29;20519;-83
2024/01/21 02:51:59;;;;;;;15.15;10.82;;;4.40;71.40;;;;;;4954136;29;20489;-83
2024/01/21 02:54:25;;;;;;;19.05;11.63;;;4.40;70.80;;;;;;4950321;29;20107;-82
2024/01/21 02:56:51;;;;;;;15.85;10.57;;;4.30;70.80;;;;;;4953160;29;20031;-82
2024/01/21 02:59:17;;;;;;;18.33;10.77;;;4.40;70.90;;;;;;4952797;29;20470;-83
2024/01/21 03:01:43;;;;;;;17.20;10.80;;;4.30;70.80;;;;;;4953685;29;20167;-83
2024/01/21 03:04:13;;;;;;;15.63;10.27;;;4.30;70.80;;;;;;4945971;29;20106;-83
2024/01/21 03:06:39;;;;;;;19.33;11.02;;;4.30;70.70;;;;;;4938815;29;20401;-83
2024/01/21 03:09:05;;;;;;;16.35;9.75;;;4.30;70.80;;;;;;4939245;29;20031;-83
2024/01/21 03:11:36;;;;;;;14.55;10.75;;;4.20;70.90;;;;;;4957127;29;20039;-82
2024/01/21 03:14:02;;;;;;;16.67;11.35;;;4.20;71.10;;;;;;4957461;29;20059;-82
2024/01/21 03:16:28;;;;;;;15.20;10.25;;;4.20;71.10;;;;;;4939649;29;20062;-83
2024/01/21 03:18:54;;;;;;;14.63;10.32;;;4.20;71.00;;;;;;4957190;29;20038;-83
2024/01/21 03:21:19;;;;;;;17.70;11.93;;;4.30;71.10;;;;;;4933373;29;20060;-83
2024/01/21 03:23:45;;;;;;;15.73;10.90;;;4.30;70.70;;;;;;4942422;29;20034;-83
2024/01/21 03:26:11;;;;;;;14.73;9.73;;;4.30;70.70;;;;;;4971496;28;20035;-82
2024/01/21 03:28:36;;;;;;;15.02;10.07;;;4.30;70.70;;;;;;4957040;29;20094;-82
2024/01/21 03:31:02;;;;;;;13.15;9.38;;;4.20;70.70;;;;;;4939302;29;20043;-82
2024/01/21 03:33:28;;;;;;;13.88;8.98;;;4.30;70.70;;;;;;4957217;29;20033;-82
2024/01/21 03:35:54;;;;;;;16.80;9.95;;;4.30;70.50;;;;;;4956774;29;20191;-82
2024/01/21 03:38:19;;;;;;;13.88;9.10;;;4.30;70.70;;;;;;4939841;29;20030;-82
2024/01/21 03:40:45;;;;;;;16.42;9.07;;;4.30;70.70;;;;;;4955928;29;20102;-83
2024/01/21 03:43:11;;;;;;;14.43;9.30;;;4.30;71.00;;;;;;4938828;29;20121;-83
2024/01/21 03:45:36;;;;;;;14.10;9.00;;;4.30;70.70;;;;;;4948711;29;20086;-83
2024/01/21 03:48:03;;;;;;;13.73;8.55;;;4.30;70.50;;;;;;4956075;29;20031;-83
2024/01/21 03:50:30;;;;;;;13.38;8.60;;;4.30;70.40;;;;;;4956337;29;20441;-83
2024/01/21 03:52:56;;;;;;;13.35;9.25;;;4.30;70.70;;;;;;4930036;29;20070;-84
2024/01/21 03:55:24;;;;;;;13.30;8.82;;;4.30;70.80;;;;;;4951564;29;20486;-82
2024/01/21 03:58:02;;;;;;;14.52;8.95;;;4.30;70.90;;;;;;4944799;29;20031;-82
2024/01/21 04:00:28;;;;;;;12.52;9.05;;;4.40;71.30;;;;;;4939220;29;20039;-82
2024/01/21 04:02:54;;;;;;;14.57;9.45;;;4.30;71.20;;;;;;4956085;29;20038;-82
2024/01/21 04:05:19;;;;;;;13.57;9.23;;;4.30;70.90;;;;;;4956304;29;20123;-82
2024/01/21 04:07:45;;;;;;;15.13;8.85;;;4.20;71.00;;;;;;4952598;29;20031;-82
2024/01/21 04:10:11;;;;;;;11.48;9.13;;;4.10;71.20;;;;;;4953830;29;20442;-82
2024/01/21 04:12:37;;;;;;;15.45;10.52;;;4.10;71.40;;;;;;4951389;29;20023;-82
2024/01/21 04:15:03;;;;;;;15.77;10.82;;;4.00;71.80;;;;;;4954460;28;20110;-82
2024/01/21 04:17:29;;;;;;;14.60;10.15;;;4.00;72.20;;;;;;4954022;29;20393;-82
2024/01/21 04:19:55;;;;;;;15.10;10.35;;;4.00;72.40;;;;;;4949285;28;20102;-82
2024/01/21 04:22:21;;;;;;;16.48;9.60;;;4.00;72.30;;;;;;4940053;29;20459;-82
2024/01/21 04:24:47;;;;;;;14.65;10.00;;;3.90;72.40;;;;;;4937057;29;20023;-82
2024/01/21 04:27:13;;;;;;;13.05;9.35;;;3.90;72.40;;;;;;4919536;29;20127;-81
2024/01/21 04:29:39;;;;;;;14.52;9.38;;;3.90;72.50;;;;;;4935095;29;20187;-81
2024/01/21 04:32:04;;;;;;;14.07;8.82;;;3.90;72.60;;;;;;4936737;29;20051;-82
2024/01/21 04:34:30;;;;;;;12.52;8.52;;;3.90;72.40;;;;;;4935523;29;20024;-82
2024/01/21 04:36:56;;;;;;;11.65;7.93;;;4.00;72.30;;;;;;4936622;29;20028;-81
2024/01/21 04:39:22;;;;;;;11.75;7.57;;;4.00;72.00;;;;;;4936888;29;20020;-82
2024/01/21 04:41:48;;;;;;;11.75;8.05;;;4.00;72.00;;;;;;4936306;29;20035;-83
2024/01/21 04:44:14;;;;;;;12.98;8.35;;;4.00;72.20;;;;;;4919699;29;20031;-83
2024/01/21 04:46:40;;;;;;;10.13;7.32;;;4.10;72.20;;;;;;4936280;29;20062;-82
2024/01/21 04:49:05;;;;;;;9.57;7.35;;;4.20;72.00;;;;;;4935522;29;20123;-82
2024/01/21 04:51:31;;;;;;;11.65;6.80;;;4.20;71.70;;;;;;4918947;29;20419;-82
2024/01/21 04:53:57;;;;;;;10.75;7.03;;;4.20;71.40;;;;;;4936586;29;20038;-82
2024/01/21 04:56:22;;;;;;;11.70;6.45;;;4.20;71.30;;;;;;4936917;29;20121;-81
2024/01/21 04:58:48;;;;;;;11.25;7.15;;;4.20;71.20;;;;;;4936630;29;20138;-81
2024/01/21 05:01:15;;;;;;;10.85;6.75;;;4.20;70.80;;;;;;4935940;29;20039;-83
2024/01/21 05:03:41;;;;;;;10.13;7.07;;;4.20;70.80;;;;;;4935893;29;20028;-82
2024/01/21 05:06:07;;;;;;;11.25;7.03;;;4.20;70.80;;;;;;4932180;29;20098;-82
2024/01/21 05:08:32;;;;;;;9.05;6.53;;;4.20;70.80;;;;;;4936573;29;20382;-82
2024/01/21 05:10:59;;;;;;;10.38;7.45;;;4.20;70.70;;;;;;4920350;29;20122;-81
2024/01/21 05:13:25;;;;;;;11.15;7.30;;;4.20;70.70;;;;;;4936199;29;20026;-82
2024/01/21 05:15:50;;;;;;;12.43;8.35;;;4.20;71.10;;;;;;4932711;29;20024;-82
2024/01/21 05:18:16;;;;;;;13.50;9.27;;;4.20;71.40;;;;;;4934665;29;20672;-83
2024/01/21 05:20:43;;;;;;;12.55;8.60;;;4.20;71.80;;;;;;4944504;29;20051;-83
2024/01/21 05:23:09;;;;;;;14.15;9.15;;;4.20;71.70;;;;;;4955071;29;20023;-82
2024/01/21 05:25:34;;;;;;;15.65;12.10;;;4.20;72.00;;;;;;4955161;29;20034;-82
2024/01/21 05:28:00;;;;;;;19.40;11.15;;;4.00;71.60;;;;;;4954497;28;20031;-83
2024/01/21 05:30:25;;;;;;;19.52;12.85;;;3.80;72.50;;;;;;4955128;29;20039;-83
2024/01/21 05:32:51;;;;;;;21.02;13.73;;;3.60;73.20;;;;;;4950740;29;20020;-83
2024/01/21 05:35:18;;;;;;;18.95;12.82;;;3.40;74.40;;;;;;4937680;29;20447;-83
2024/01/21 05:37:44;;;;;;;15.32;11.35;;;3.30;73.90;;;;;;4954768;29;20437;-83
2024/01/21 05:40:10;;;;;;;21.25;14.13;;;3.30;74.90;;;;;;4955195;29;20035;-83
2024/01/21 05:42:36;;;;;;;24.42;14.50;;;3.30;74.50;;;;;;4954632;29;20035;-83
2024/01/21 05:45:01;;;;;;;21.80;14.80;;;3.20;75.00;;;;;;4955071;29;20025;-83
2024/01/21 05:47:27;;;;;;;27.65;16.08;;;3.10;75.10;;;;;;4954707;29;20113;-82
2024/01/21 05:49:53;;;;;;;24.67;14.02;;;3.10;75.20;;;;;;4953926;29;20114;-82
2024/01/21 05:52:18;;;;;;;22.42;14.65;;;3.10;75.40;;;;;;4951373;29;20027;-82
2024/01/21 05:54:44;;;;;;;20.88;14.43;;;3.10;75.40;;;;;;4936756;29;20077;-82
2024/01/21 05:57:10;;;;;;;23.23;14.20;;;3.00;75.30;;;;;;4937639;29;20074;-82
2024/01/21 05:59:35;;;;;;;20.15;13.93;;;3.00;75.60;;;;;;4954907;29;20470;-83
2024/01/21 06:02:01;;;;;;;21.55;13.60;;;3.10;75.80;;;;;;4935409;29;20082;-82
2024/01/21 06:04:27;;;;;;;21.55;14.23;;;3.10;75.80;;;;;;4949542;29;20136;-82
2024/01/21 06:06:52;;;;;;;21.70;14.55;;;3.20;75.90;;;;;;4949775;29;20030;-83
2024/01/21 06:09:18;;;;;;;18.25;11.63;;;3.10;75.60;;;;;;4954481;29;20035;-82
2024/01/21 06:11:44;;;;;;;20.90;13.13;;;3.00;75.40;;;;;;4954052;29;20036;-83
2024/01/21 06:14:10;;;;;;;20.67;13.23;;;3.00;75.50;;;;;;4936589;29;20166;-82
2024/01/21 06:16:37;;;;;;;23.73;14.30;;;3.00;75.60;;;;;;4938921;29;20114;-83
2024/01/21 06:19:03;;;;;;;19.02;13.43;;;3.10;75.70;;;;;;4952878;29;20043;-82
2024/01/21 06:21:29;;;;;;;19.80;13.35;;;3.10;75.80;;;;;;4928997;29;20048;-82
2024/01/21 06:23:55;;;;;;;20.55;14.07;;;3.10;75.80;;;;;;4953562;29;20465;-82
2024/01/21 06:26:22;;;;;;;20.83;14.40;;;3.10;75.60;;;;;;4954259;29;20106;-83
2024/01/21 06:28:51;;;;;;;26.00;15.70;;;3.10;75.70;;;;;;4967430;28;20043;-82
2024/01/21 06:31:16;;;;;;;19.10;12.05;;;3.10;75.90;;;;;;4954664;29;20032;-83
2024/01/21 06:33:43;;;;;;;21.58;14.57;;;3.10;75.80;;;;;;4954322;29;20425;-83
2024/01/21 06:36:09;;;;;;;18.77;12.05;;;3.00;75.90;;;;;;4952658;28;20051;-82
2024/01/21 06:38:35;;;;;;;22.08;14.10;;;2.90;76.10;;;;;;4954360;28;20417;-83
2024/01/21 06:41:01;;;;;;;21.02;14.00;;;2.90;76.20;;;;;;4940832;29;20122;-83
2024/01/21 06:43:27;;;;;;;22.48;14.43;;;2.90;76.20;;;;;;4940765;29;20046;-83
2024/01/21 06:45:52;;;;;;;23.42;15.00;;;2.90;76.40;;;;;;4941185;29;20421;-82
2024/01/21 06:48:18;;;;;;;23.13;14.77;;;2.90;76.50;;;;;;4957683;29;20042;-83
2024/01/21 06:50:48;;;;;;;21.55;13.93;;;2.90;76.40;;;;;;4955305;29;20054;-81
2024/01/21 06:53:15;;;;;;;20.90;13.65;;;3.00;76.20;;;;;;4958138;29;20465;-81
2024/01/21 06:55:43;;;;;;;28.08;15.55;;;3.00;76.00;;;;;;4958350;29;20035;-82
2024/01/21 06:58:08;;;;;;;22.58;15.15;;;3.00;76.10;;;;;;4955475;29;20027;-82
2024/01/21 07:00:34;;;;;;;21.80;15.15;;;3.10;76.30;;;;;;4941221;29;20441;-84
2024/01/21 07:02:59;;;;;;;20.65;12.57;;;3.20;76.30;;;;;;4939121;29;20043;-85
2024/01/21 07:05:25;;;;;;;19.67;12.52;;;3.10;76.30;;;;;;4940605;29;20028;-85
2024/01/21 07:07:51;;;;;;;18.95;13.20;;;2.90;76.10;;;;;;4956034;29;20042;-85
2024/01/21 07:10:16;;;;;;;21.70;13.95;;;2.90;76.30;;;;;;4958749;29;20039;-85
2024/01/21 07:12:42;;;;;;;20.58;14.23;;;2.90;76.50;;;;;;4942376;29;20042;-86
2024/01/21 07:15:09;;;;;;;22.88;13.40;;;2.90;76.40;;;;;;4959362;29;20082;-86
2024/01/21 07:17:34;;;;;;;21.60;13.70;;;2.90;76.40;;;;;;4958576;29;20039;-86
2024/01/21 07:20:00;;;;;;;20.58;13.27;;;3.00;76.50;;;;;;4941005;29;20048;-86
2024/01/21 07:22:26;;;;;;;20.67;13.45;;;3.00;76.40;;;;;;4958598;29;20027;-86
2024/01/21 07:24:52;;;;;;;18.55;12.05;;;3.10;76.00;;;;;;4958987;29;20075;-85
2024/01/21 07:27:18;;;;;;;18.15;12.90;;;3.10;75.80;;;;;;4959231;29;20027;-86
2024/01/21 07:29:44;;;;;;;19.63;12.43;;;3.10;75.50;;;;;;4952371;29;20027;-85
2024/01/21 07:32:09;;;;;;;15.18;11.68;;;3.10;75.20;;;;;;4938721;29;20375;-85
2024/01/21 07:34:35;;;;;;;20.00;13.32;;;3.10;75.20;;;;;;4956611;29;20038;-85
2024/01/21 07:37:01;;;;;;;20.63;12.85;;;3.10;75.30;;;;;;4957769;29;20027;-85
2024/01/21 07:39:27;;;;;;;20.98;12.13;;;3.20;75.40;;;;;;4951680;29;20035;-86
2024/01/21 07:41:53;;;;;;;15.55;11.73;;;3.20;75.30;;;;;;4956909;29;20118;-86
2024/01/21 07:44:19;;;;;;;17.50;12.23;;;3.30;75.30;;;;;;4930967;29;20032;-85
2024/01/21 07:46:46;;;;;;;19.88;13.18;;;3.30;75.30;;;;;;4952478;29;20031;-87
2024/01/21 07:49:11;;;;;;;18.23;12.18;;;3.30;75.20;;;;;;4957293;29;20058;-87
2024/01/21 07:51:37;;;;;;;18.73;12.73;;;3.40;75.20;;;;;;4922649;29;20482;-87
2024/01/21 07:54:03;;;;;;;18.25;11.77;;;3.50;75.00;;;;;;4954845;28;20532;-87
2024/01/21 07:56:28;;;;;;;17.45;11.65;;;3.40;74.50;;;;;;4938304;29;20039;-87
2024/01/21 07:58:54;;;;;;;19.83;12.98;;;3.50;74.50;;;;;;4921801;29;20056;-87
2024/01/21 08:01:21;;;;;;;16.95;11.75;;;3.50;74.20;;;;;;4921757;29;20058;-87
2024/01/21 08:03:47;;;;;;;16.85;11.50;;;3.50;74.00;;;;;;4951158;29;20019;-87
2024/01/21 08:06:13;;;;;;;16.10;11.40;;;3.50;73.90;;;;;;4940120;29;20098;-87
2024/01/21 08:08:39;;;;;;;18.38;12.30;;;3.60;74.00;;;;;;4971275;28;20114;-85
2024/01/21 08:11:05;;;;;;;18.98;12.27;;;3.60;74.30;;;;;;4933874;29;20032;-84
2024/01/21 08:13:31;;;;;;;19.85;12.52;;;3.70;74.70;;;;;;4952689;29;20031;-85
2024/01/21 08:15:56;;;;;;;16.35;11.23;;;3.70;74.30;;;;;;4956112;29;20421;-83
2024/01/21 08:18:22;;;;;;;18.50;11.30;;;3.70;73.80;;;;;;4956802;29;20031;-85
2024/01/21 08:20:48;;;;;;;17.73;11.13;;;3.70;73.50;;;;;;4955527;29;20051;-83
2024/01/21 08:23:14;;;;;;;14.18;9.43;;;3.70;73.60;;;;;;4938918;29;20024;-82
2024/01/21 08:25:40;;;;;;;12.00;9.20;;;3.80;73.30;;;;;;4956757;29;20035;-83
2024/01/21 08:28:06;;;;;;;17.48;11.20;;;3.80;74.20;;;;;;4956396;29;20071;-83
2024/01/21 08:30:32;;;;;;;14.27;10.10;;;3.90;73.60;;;;;;4957726;29;20121;-83
2024/01/21 08:32:58;;;;;;;17.90;12.00;;;4.00;73.10;;;;;;4956970;28;20042;-82
2024/01/21 08:35:23;;;;;;;16.85;11.43;;;4.10;73.20;;;;;;4956750;28;20038;-86
2024/01/21 08:37:49;;;;;;;14.55;10.60;;;4.10;73.10;;;;;;4952672;28;20024;-83
2024/01/21 08:40:15;;;;;;;18.52;11.68;;;4.30;73.10;;;;;;4968096;28;20055;-84
2024/01/21 08:42:42;;;;;;;18.42;11.65;;;4.40;73.20;;;;;;4953194;29;20032;-85
2024/01/21 08:45:08;;;;;;;16.10;10.93;;;4.50;72.70;;;;;;4956567;29;20538;-85
2024/01/21 08:47:41;;;;;;;16.08;11.20;;;4.60;72.60;;;;;;4939457;29;20119;-86
2024/01/21 08:50:08;;;;;;;16.67;9.77;;;4.70;72.00;;;;;;4936912;29;20394;-88
2024/01/21 08:52:34;;;;;;;14.65;10.15;;;4.80;71.50;;;;;;4960060;29;20034;-89
2024/01/21 08:54:59;;;;;;;14.85;10.13;;;4.90;71.70;;;;;;4960969;29;20027;-87
2024/01/21 08:57:25;;;;;;;15.50;10.27;;;5.10;71.50;;;;;;4981414;28;20023;-88
2024/01/21 08:59:51;;;;;;;14.07;9.80;;;5.30;71.10;;;;;;4984684;28;20034;-88
2024/01/21 09:02:18;;;;;;;12.27;9.50;;;5.50;70.70;;;;;;4964279;28;20027;-87
2024/01/21 09:04:44;;;;;;;16.27;10.18;;;5.70;70.20;;;;;;4946531;29;20098;-87
2024/01/21 09:07:09;;;;;;;11.45;7.95;;;6.00;69.90;;;;;;4961263;29;20560;-87
2024/01/21 09:09:35;;;;;;;14.88;10.05;;;6.10;67.10;;;;;;4961859;29;20031;-87
2024/01/21 09:12:01;;;;;;;11.05;7.70;;;6.20;67.80;;;;;;4963019;29;20046;-87
2024/01/21 09:14:27;;;;;;;11.20;8.30;;;6.30;67.10;;;;;;4946181;29;20028;-87
2024/01/21 09:16:53;;;;;;;9.40;6.38;;;6.40;67.60;;;;;;4964434;28;20050;-86
2024/01/21 09:19:19;;;;;;;8.23;6.13;;;6.50;67.20;;;;;;4983715;28;20057;-87
2024/01/21 09:21:44;;;;;;;10.02;7.25;;;6.60;67.00;;;;;;4982265;28;20507;-87
2024/01/21 09:24:11;;;;;;;8.20;5.88;;;6.70;67.20;;;;;;4982448;28;20038;-87
2024/01/21 09:26:37;;;;;;;8.75;5.72;;;6.80;65.70;;;;;;4978403;28;20023;-86
2024/01/21 09:29:03;;;;;;;8.90;5.70;;;6.80;64.70;;;;;;4979066;28;20082;-87
2024/01/21 09:31:29;;;;;;;8.32;5.88;;;6.90;65.00;;;;;;4978020;28;20378;-87
2024/01/21 09:33:56;;;;;;;8.25;5.68;;;7.00;65.40;;;;;;4979470;28;20089;-87
2024/01/21 09:36:23;;;;;;;9.02;5.47;;;7.20;63.20;;;;;;4940804;29;20095;-89
2024/01/21 09:38:50;;;;;;;8.98;5.50;;;7.30;64.40;;;;;;4960648;29;20030;-88
2024/01/21 09:41:41;;;;;;;10.45;5.70;;;7.40;63.60;;;;;;4959905;29;20148;-88
2024/01/21 09:44:06;;;;;;;6.47;4.65;;;7.50;63.70;;;;;;4941296;29;20039;-88
2024/01/21 09:46:32;;;;;;;7.28;4.93;;;7.60;62.60;;;;;;4959745;29;20394;-89
2024/01/21 09:49:00;;;;;;;6.25;4.28;;;7.70;60.10;;;;;;4958836;29;20486;-88
2024/01/21 09:51:29;;;;;;;6.82;4.30;;;7.70;62.00;;;;;;4963189;28;20038;-86
2024/01/21 09:53:55;;;;;;;6.82;4.38;;;7.90;62.30;;;;;;4957642;29;20029;-87
2024/01/21 09:56:21;;;;;;;7.93;4.63;;;8.10;62.40;;;;;;4954438;29;20019;-86
2024/01/21 09:58:52;;;;;;;7.10;4.43;;;8.30;62.50;;;;;;4952727;28;20082;-87
2024/01/21 10:01:19;;;;;;;7.03;4.75;;;8.40;60.90;;;;;;4967921;28;20055;-87
2024/01/21 10:03:45;;;;;;;6.28;4.40;;;8.50;61.30;;;;;;4956755;29;20035;-87
2024/01/21 10:06:11;;;;;;;7.40;5.05;;;8.70;61.30;;;;;;4952653;29;20046;-87
2024/01/21 10:08:38;;;;;;;8.75;4.97;;;8.90;60.40;;;;;;4948289;29;20036;-87
2024/01/21 10:11:04;;;;;;;5.88;4.10;;;9.00;60.50;;;;;;4955406;28;20031;-87
2024/01/21 10:13:31;;;;;;;6.05;4.57;;;9.20;59.20;;;;;;4957321;28;20102;-87
2024/01/21 10:15:58;;;;;;;5.45;3.92;;;9.30;57.70;;;;;;4960715;29;20017;-89
2024/01/21 10:18:25;;;;;;;4.47;3.50;;;9.30;58.00;;;;;;4940744;29;20039;-88
2024/01/21 10:20:51;;;;;;;6.28;4.10;;;9.30;58.70;;;;;;4940504;29;20054;-86
2024/01/21 10:23:17;;;;;;;5.57;3.95;;;9.50;59.10;;;;;;4955766;29;20039;-82
2024/01/21 10:25:44;;;;;;;9.85;4.60;;;9.70;58.60;;;;;;4957642;29;20046;-79
2024/01/21 10:28:13;;;;;;;4.93;3.50;;;9.80;52.70;;;;;;4956233;29;20044;-82
2024/01/21 10:30:39;;;;;;;5.72;3.65;;;9.80;55.00;;;;;;4956584;29;20055;-82
2024/01/21 10:33:06;;;;;;;6.35;4.60;;;10.00;59.50;;;;;;4940135;29;20458;-80
2024/01/21 10:35:32;;;;;;;7.30;4.97;;;10.20;57.00;;;;;;4953469;29;20031;-82
2024/01/21 10:37:58;;;;;;;5.38;4.30;;;10.30;56.30;;;;;;4952718;29;20410;-78
2024/01/21 10:40:25;;;;;;;6.20;4.38;;;10.40;55.90;;;;;;4956081;29;20034;-80
2024/01/21 10:42:55;;;;;;;5.95;4.60;;;10.60;56.90;;;;;;4940652;29;20033;-79
2024/01/21 10:45:25;;;;;;;6.45;4.65;;;10.90;55.90;;;;;;4953613;28;20027;-80
2024/01/21 10:47:53;;;;;;;5.72;4.55;;;11.10;56.30;;;;;;4947920;28;20036;-79
2024/01/21 10:50:22;;;;;;;5.07;4.32;;;11.40;55.50;;;;;;4951787;29;20389;-78
2024/01/21 10:52:49;;;;;;;5.10;3.60;;;11.60;52.10;;;;;;4952730;28;20058;-78
2024/01/21 10:55:15;;;;;;;4.75;3.55;;;11.60;51.20;;;;;;4954436;28;20035;-79
2024/01/21 10:57:42;;;;;;;4.32;3.17;;;11.50;48.60;;;;;;4953085;29;20441;-79
2024/01/21 11:00:09;;;;;;;4.70;3.38;;;11.50;49.70;;;;;;4936836;29;20069;-79
2024/01/21 11:02:35;;;;;;;5.00;3.08;;;11.60;49.90;;;;;;4955845;29;20078;-79
2024/01/21 11:05:01;;;;;;;4.47;3.13;;;11.60;50.60;;;;;;4957270;29;20027;-79
2024/01/21 11:07:27;;;;;;;5.03;3.75;;;11.80;52.30;;;;;;4957014;29;20039;-79
2024/01/21 11:09:54;;;;;;;6.07;4.57;;;12.10;52.00;;;;;;4952463;29;20035;-79
2024/01/21 11:12:22;;;;;;;5.60;4.00;;;12.30;51.30;;;;;;4954811;29;20027;-79
2024/01/21 11:14:51;;;;;;;5.30;4.03;;;12.50;50.60;;;;;;4956437;29;20151;-79
2024/01/21 11:17:23;;;;;;;;;;;12.70;50.40;;;;;;4940032;29;20478;-79
2024/01/21 11:19:55;;;;;;;6.18;4.10;;;12.90;49.00;;;;;;4948280;29;19915;-79
2024/01/21 11:22:23;;;;;;;5.40;3.63;;;12.90;47.60;;;;;;4934849;29;20031;-79
2024/01/21 11:24:55;;;;;;;4.57;3.60;;;12.90;48.80;;;;;;4936646;29;20436;-78
2024/01/21 11:27:22;;;;;;;4.97;3.58;;;12.90;48.80;;;;;;4938080;29;20023;-78
2024/01/21 11:29:50;;;;;;;6.22;4.20;;;12.90;47.20;;;;;;4936506;29;20080;-80
2024/01/21 11:32:26;;;;;;;7.40;4.68;;;12.90;48.30;;;;;;4937114;29;20063;-79
2024/01/21 11:34:53;;;;;;;5.93;4.22;;;13.10;45.60;;;;;;4936791;29;20066;-78
2024/01/21 11:37:19;;;;;;;5.38;3.78;;;13.10;46.30;;;;;;4937954;29;20526;-77
2024/01/21 11:39:45;;;;;;;5.68;3.97;;;13.20;46.40;;;;;;4919156;29;20382;-77
2024/01/21 11:42:11;;;;;;;4.63;3.97;;;13.10;43.10;;;;;;4937952;29;20033;-77
2024/01/21 11:44:39;;;;;;;6.03;4.32;;;13.20;46.90;;;;;;4936982;29;20110;-77
2024/01/21 11:47:06;;;;;;;7.05;4.22;;;13.40;46.30;;;;;;4937251;29;20027;-77
2024/01/21 11:49:36;;;;;;;4.90;3.30;;;13.60;44.50;;;;;;4934273;29;20043;-78
2024/01/21 11:52:07;;;;;;;5.25;4.05;;;13.70;42.00;;;;;;4935857;29;20066;-78
2024/01/21 11:54:37;;;;;;;5.63;3.70;;;14.10;45.60;;;;;;4935118;29;20110;-80
2024/01/21 11:57:04;;;;;;;4.85;3.40;;;14.80;43.90;;;;;;4913086;29;20110;-80
2024/01/21 11:59:31;;;;;;;4.50;3.80;;;15.50;40.60;;;;;;4934592;29;20540;-81
2024/01/21 12:04:28;;;;;;;6.28;4.78;;;17.40;39.00;;;;;;4956241;29;20140;-82
2024/01/21 12:07:10;;;;;;;6.18;4.80;;;18.10;40.30;;;;;;4949853;29;20031;-82
2024/01/21 12:09:38;;;;;;;7.43;4.78;;;18.80;36.50;;;;;;4961455;28;20043;-83
2024/01/21 12:42:25;;;;;;;6.00;5.32;;;19.60;35.80;;;;;;4960463;28;20083;-83
2024/01/21 12:45:54;;;;;;;5.88;5.28;;;18.50;35.30;;;;;;4962530;29;20031;-86
2024/01/21 12:52:14;;;;;;;6.18;5.30;;;16.80;37.80;;;;;;4960943;28;20417;-83
2024/01/21 12:54:45;;;;;;;7.05;5.97;;;16.40;38.60;;;;;;4948043;29;20034;-84
2024/01/21 12:57:40;;;;;;;6.75;5.43;;;16.10;39.90;;;;;;4943260;29;20094;-83
2024/01/21 13:25:46;;;;;;;5.40;4.50;;;14.00;42.40;;;;;;4954834;28;20037;-82
2024/01/21 13:28:27;;;;;;;5.07;4.15;;;13.90;42.90;;;;;;4948146;29;20094;-82
2024/01/21 13:31:01;;;;;;;6.60;4.93;;;13.70;42.60;;;;;;4935077;29;20335;-82
2024/01/21 13:33:28;;;;;;;6.43;4.97;;;13.60;43.20;;;;;;4954912;29;20031;-82
2024/01/21 13:35:54;;;;;;;7.22;4.88;;;13.40;43.60;;;;;;4947587;29;20026;-82
2024/01/21 13:38:24;;;;;;;7.53;5.50;;;13.30;43.90;;;;;;4952584;29;20106;-81
2024/01/21 13:40:50;;;;;;;5.93;5.03;;;13.20;44.20;;;;;;4951856;29;20042;-82
2024/01/21 13:43:19;;;;;;;6.45;4.97;;;13.00;44.50;;;;;;4946961;29;20082;-82